Lake Charles Regional, LA

12:08 PM CDT on May 29, 2017 (GMT -0500)
Lake Charles Regional | | Change Station
Active Advisory: Flood Warning

Elev 13 ft 30.13 °N, 93.22 °W | Updated 15 minutes ago

Partly Cloudy
Partly Cloudy
77 °F
Feels Like 77 °F
N
4
Wind Variable Wind from SW

Today
High -- | Low -- °F
--% Chance of Precip.
Yesterday
High -- | Low -- °F
Precip. -- in
Pressure 30.06 in
Visibility 10.0 miles
Clouds Clear
Dew Point 70 °F
Humidity 79%
Rainfall 1.65 in
Snow Depth Not available.
6:12 AM 8:08 PM
Waxing Crescent, 21% visible
METAR KLCH 291653Z 22003KT 10SM CLR 25/21 A3003 RMK AO2 SLP178 T02500211 $
Pressure 30.06 in
Visibility 10.0 miles
Clouds Clear
Dew Point 70 °F
Humidity 79%
Rainfall 1.65 in
Snow Depth Not available.
6:12 AM 8:08 PM
Waxing Crescent, 21% visible
METAR KLCH 291653Z 22003KT 10SM CLR 25/21 A3003 RMK AO2 SLP178 T02500211 $

Get Your Daily Forecast Email!

Thanks for signing up!

Be on the lookout for a verification email in your inbox.

You'll start receiving severe weather alerts in your inbox..

×

10-Day Weather Forecast

Almanac

Astronomy

May. 29, 2017 Rise Set
Actual Time
Civil Twilight
Nautical Twilight
Astronomical Twilight
Moon
Length of Visible Light
Length of Day
Tomorrow will be .
, % of the Moon is Illuminated

Today's Extremes

State Highs State Lows

Community

WunderPhotos

Category 6

Welcome to Category 6. This is the collective home for Weather Underground's featured writeups by Dr. Jeff Masters (right), Bob Henson (left), Chris Burt, and other regular contributors.

Nearby

Air Quality

  Air Quality AQ Index Pollutant
Not available.

Snow Depth

Station Depth Elevation

Earthquake Activity

City Distance Mag. Time & Date
Minimum magnitude displayed is 2.5.

Coastal Water Temperatures

Place Temperature

Stations

Nearby Weather Stations

Station Location Temp. Windchill Dew Point Humidity Wind Precip. Elev Updated Type
                   

Watches & Warnings

Flood Warning
Issued: 10:55 AM CDT May. 29, 2017 – National Weather Service

The National Weather Service in Lake Charles has issued a

* Flood Warning for
the Calcasieu River at Old Town Bay.
* From Thursday afternoon to Friday evening... or until the warning is
cancelled.
* At 8:00 am Monday the stage was 3.6 feet.
* Minor flooding is forecast.
* Flood stage is 4.0 feet.
* Forecast... the river is expected to rise to near flood stage
Thursday early afternoon.
* Impact... at stages near 4.0 feet... minor flooding of goos Ferry
Road will occur.
* Impact... at stages near 3.5 feet... ponding of water on low spots
along goos Ferry Road will occur.


Lat... Lon 3038 9314 3031 9303 3025 9308 3019 9321 3030 9329